createdAt,value
2022-08-27T00:01:48.815Z,20.68
2022-08-27T00:04:17.059Z,20.45
2022-08-27T00:06:46.070Z,20.92
2022-08-27T00:09:14.391Z,21.07
2022-08-27T00:11:45.214Z,21.13
2022-08-27T00:14:14.133Z,20.99
2022-08-27T00:16:43.041Z,20.85
2022-08-27T00:19:11.888Z,20.88
2022-08-27T00:21:40.087Z,20.84
2022-08-27T00:24:08.075Z,20.75
2022-08-27T00:26:40.157Z,20.59
2022-08-27T00:29:10.706Z,20.73
2022-08-27T00:31:38.993Z,20.62
2022-08-27T00:34:07.520Z,20.72
2022-08-27T00:36:36.049Z,20.57
2022-08-27T00:39:04.751Z,20.68
2022-08-27T00:41:33.547Z,20.55
2022-08-27T00:44:02.183Z,20.45
2022-08-27T00:46:57.687Z,19.87
2022-08-27T00:49:43.137Z,20.46
2022-08-27T00:52:18.999Z,20.23
2022-08-27T00:54:47.052Z,20.36
2022-08-27T00:57:15.610Z,20.34
2022-08-27T00:59:44.106Z,20.22
2022-08-27T01:02:21.507Z,20.17
2022-08-27T01:04:58.997Z,20.15
2022-08-27T01:07:28.772Z,20.14
2022-08-27T01:09:59.323Z,20.17
2022-08-27T01:12:27.565Z,20.08
2022-08-27T01:14:56.540Z,19.88
2022-08-27T01:17:25.193Z,19.52
2022-08-27T01:19:56.225Z,20.00
2022-08-27T01:22:27.325Z,20.11
2022-08-27T01:24:59.006Z,20.16
2022-08-27T01:27:31.556Z,19.68
2022-08-27T01:29:59.995Z,19.95
2022-08-27T01:32:30.527Z,19.75
2022-08-27T01:34:59.642Z,19.58
2022-08-27T01:37:28.075Z,19.23
2022-08-27T01:39:59.107Z,19.46
2022-08-27T01:42:34.131Z,19.68
2022-08-27T01:45:09.201Z,20.04
2022-08-27T01:47:37.472Z,20.04
2022-08-27T01:50:13.542Z,20.39
2022-08-27T01:52:41.631Z,19.60
2022-08-27T01:55:12.201Z,19.86
2022-08-27T01:57:40.141Z,19.68
2022-08-27T02:00:12.792Z,19.61
2022-08-27T02:02:41.706Z,19.90
2022-08-27T02:05:10.032Z,19.67
2022-08-27T02:07:38.601Z,20.13
2022-08-27T02:10:08.592Z,20.14
2022-08-27T02:12:36.510Z,19.58
2022-08-27T02:15:05.442Z,20.06
2022-08-27T02:17:34.408Z,19.93
2022-08-27T02:20:02.513Z,19.98
2022-08-27T02:22:30.422Z,19.87
2022-08-27T02:24:58.785Z,19.58
2022-08-27T02:27:26.597Z,19.55
2022-08-27T02:29:55.595Z,20.15
2022-08-27T02:32:31.401Z,20.04
2022-08-27T02:35:00.531Z,20.00
2022-08-27T02:37:29.081Z,19.16
2022-08-27T02:39:57.353Z,19.51
2022-08-27T02:42:25.472Z,19.63
2022-08-27T02:44:55.087Z,19.65
2022-08-27T02:47:22.843Z,19.51
2022-08-27T02:49:50.678Z,19.48
2022-08-27T02:52:24.800Z,19.13
2022-08-27T02:54:53.494Z,18.93
2022-08-27T02:57:22.642Z,18.64
2022-08-27T02:59:54.080Z,19.24
2022-08-27T03:02:22.345Z,19.37
2022-08-27T03:04:53.619Z,19.42
2022-08-27T03:07:24.403Z,19.33
2022-08-27T03:09:52.905Z,19.45
2022-08-27T03:12:22.806Z,19.19
2022-08-27T03:14:53.109Z,18.76
2022-08-27T03:17:39.815Z,19.37
2022-08-27T03:20:09.353Z,19.22
2022-08-27T03:22:37.122Z,19.10
2022-08-27T03:25:05.652Z,19.06
2022-08-27T03:27:33.761Z,19.14
2022-08-27T03:30:11.604Z,19.17
2022-08-27T03:32:40.181Z,19.06
2022-08-27T03:35:08.942Z,18.93
2022-08-27T03:37:36.943Z,19.38
2022-08-27T03:40:07.118Z,19.40
2022-08-27T03:42:35.901Z,19.21
2022-08-27T03:45:05.121Z,19.18
2022-08-27T03:47:33.711Z,19.08
2022-08-27T03:50:01.533Z,19.09
2022-08-27T03:52:29.613Z,19.08
2022-08-27T03:54:59.210Z,19.18
2022-08-27T03:57:27.311Z,19.08
2022-08-27T03:59:55.524Z,18.65
2022-08-27T04:02:23.898Z,18.99
2022-08-27T04:04:52.164Z,19.05
2022-08-27T04:07:20.332Z,19.09
2022-08-27T04:09:48.173Z,19.13
2022-08-27T04:12:16.248Z,19.07
2022-08-27T04:14:44.005Z,18.76
2022-08-27T04:17:11.902Z,19.27
2022-08-27T04:19:40.001Z,19.44
2022-08-27T04:22:08.411Z,19.37
2022-08-27T04:24:37.532Z,19.35
2022-08-27T04:27:06.504Z,19.33
2022-08-27T04:29:35.123Z,19.42
2022-08-27T04:32:05.626Z,19.37
2022-08-27T04:34:33.883Z,19.49
2022-08-27T04:37:01.771Z,19.49
2022-08-27T04:39:30.330Z,19.54
2022-08-27T04:42:00.181Z,19.67
2022-08-27T04:44:31.422Z,19.72
2022-08-27T04:47:03.861Z,19.86
2022-08-27T04:49:33.970Z,19.89
2022-08-27T04:52:03.103Z,19.95
2022-08-27T04:54:32.319Z,20.11
2022-08-27T04:57:02.971Z,20.21
2022-08-27T04:59:31.657Z,20.44
2022-08-27T05:02:00.032Z,20.44
2022-08-27T05:04:32.181Z,20.84
2022-08-27T05:07:01.668Z,20.81
2022-08-27T05:09:29.585Z,20.83
2022-08-27T05:11:57.822Z,21.47
2022-08-27T05:14:30.091Z,21.80
2022-08-27T05:16:59.604Z,22.04
2022-08-27T05:19:27.595Z,22.36
2022-08-27T05:21:55.503Z,22.29
2022-08-27T05:24:24.030Z,22.68
2022-08-27T05:26:51.802Z,22.80
2022-08-27T05:29:20.361Z,23.38
2022-08-27T05:31:48.552Z,23.01
2022-08-27T05:34:25.391Z,23.61
2022-08-27T05:36:54.696Z,23.43
2022-08-27T05:39:22.688Z,23.39
2022-08-27T05:41:52.652Z,24.54
2022-08-27T05:47:08.803Z,24.87
2022-08-27T05:49:37.781Z,24.42
2022-08-27T05:52:09.641Z,25.13
2022-08-27T05:54:38.512Z,25.30
2022-08-27T05:57:07.426Z,25.53
2022-08-27T05:59:54.392Z,25.89
2022-08-27T06:02:22.876Z,26.25
2022-08-27T06:04:51.158Z,26.30
2022-08-27T06:07:19.383Z,27.02
2022-08-27T06:09:47.161Z,27.12
2022-08-27T06:12:15.412Z,26.99
2022-08-27T06:14:43.223Z,27.68
2022-08-27T06:17:10.923Z,28.31
2022-08-27T06:19:39.171Z,27.79
2022-08-27T06:22:10.649Z,28.32
2022-08-27T06:24:41.259Z,28.88
2022-08-27T06:27:15.482Z,28.47
2022-08-27T06:29:44.201Z,28.76
2022-08-27T06:32:13.293Z,29.48
2022-08-27T06:34:41.473Z,29.37
2022-08-27T06:37:09.542Z,28.58
2022-08-27T06:39:39.714Z,29.50
2022-08-27T06:42:11.610Z,29.39
2022-08-27T06:44:40.409Z,29.19
2022-08-27T06:47:08.234Z,28.84
2022-08-27T06:49:40.274Z,29.72
2022-08-27T06:52:08.483Z,30.12
2022-08-27T06:54:37.146Z,30.04
2022-08-27T06:57:05.003Z,29.98
2022-08-27T06:59:33.552Z,30.17
2022-08-27T07:02:01.415Z,30.35
2022-08-27T07:04:32.534Z,30.70
2022-08-27T07:07:02.628Z,30.59
2022-08-27T07:09:32.762Z,30.05
2022-08-27T07:12:01.550Z,31.08
2022-08-27T07:14:34.271Z,32.04
2022-08-27T07:17:07.800Z,32.17
2022-08-27T07:19:40.930Z,32.29
2022-08-27T07:22:09.345Z,32.44
2022-08-27T07:24:38.463Z,32.12
2022-08-27T07:27:07.163Z,32.28
2022-08-27T07:29:35.551Z,30.39
2022-08-27T07:32:04.143Z,31.38
2022-08-27T07:34:32.232Z,31.61
2022-08-27T07:37:00.058Z,31.47
2022-08-27T07:39:27.842Z,31.80
2022-08-27T07:42:16.353Z,32.52
2022-08-27T07:44:44.164Z,32.28
2022-08-27T07:47:12.493Z,32.37
2022-08-27T07:49:41.072Z,32.67
2022-08-27T07:52:09.034Z,32.11
2022-08-27T07:54:37.742Z,32.39
2022-08-27T07:57:05.541Z,33.09
2022-08-27T07:59:33.408Z,32.63
2022-08-27T08:02:01.654Z,32.45
2022-08-27T08:04:30.080Z,32.76
2022-08-27T08:06:57.984Z,32.67
2022-08-27T08:09:25.843Z,33.05
2022-08-27T08:11:54.407Z,32.92
2022-08-27T08:14:22.912Z,32.76
2022-08-27T08:16:50.849Z,33.48
2022-08-27T08:19:18.992Z,32.87
2022-08-27T08:21:46.713Z,33.67
2022-08-27T08:24:14.555Z,33.92
2022-08-27T08:26:42.678Z,33.65
2022-08-27T08:29:13.246Z,33.22
2022-08-27T08:31:46.851Z,33.17
2022-08-27T08:34:19.989Z,34.69
2022-08-27T08:36:54.434Z,34.70
2022-08-27T08:39:23.987Z,33.59
2022-08-27T08:41:55.273Z,34.55
2022-08-27T08:44:41.853Z,33.32
2022-08-27T08:47:14.606Z,33.70
2022-08-27T08:49:53.652Z,35.38
2022-08-27T08:52:31.649Z,35.09
2022-08-27T08:55:03.821Z,33.97
2022-08-27T08:57:39.366Z,33.67
2022-08-27T09:00:12.496Z,33.67
2022-08-27T09:02:44.585Z,34.21
2022-08-27T09:05:12.422Z,34.19
2022-08-27T09:08:09.747Z,33.88
2022-08-27T09:10:48.122Z,35.19
2022-08-27T09:13:27.026Z,33.89
2022-08-27T09:15:58.383Z,34.58
2022-08-27T09:18:28.024Z,35.35
2022-08-27T09:21:08.906Z,34.75
2022-08-27T09:24:02.003Z,34.44
2022-08-27T09:26:31.862Z,34.88
2022-08-27T09:29:17.135Z,34.73
2022-08-27T09:31:49.833Z,35.94
2022-08-27T09:34:18.131Z,35.65
2022-08-27T09:37:02.343Z,34.26
2022-08-27T09:39:50.788Z,34.97
2022-08-27T09:42:30.295Z,34.96
2022-08-27T09:44:58.862Z,33.43
2022-08-27T09:47:27.261Z,32.89
2022-08-27T09:50:08.021Z,34.37
2022-08-27T09:52:51.264Z,34.00
2022-08-27T09:55:40.876Z,33.26
2022-08-27T09:58:18.012Z,33.53
2022-08-27T10:00:47.623Z,32.98
2022-08-27T10:03:15.921Z,33.23
2022-08-27T10:05:45.182Z,34.77
2022-08-27T10:08:28.520Z,34.93
2022-08-27T10:10:59.891Z,34.62
2022-08-27T10:13:51.453Z,35.43
2022-08-27T10:16:28.867Z,35.03
2022-08-27T10:19:21.164Z,36.02
2022-08-27T10:22:07.766Z,36.32
2022-08-27T10:24:35.853Z,36.65
2022-08-27T10:27:25.595Z,36.44
2022-08-27T10:30:01.161Z,34.37
2022-08-27T10:32:52.349Z,35.06
2022-08-27T10:35:47.912Z,34.81
2022-08-27T10:38:44.895Z,34.82
2022-08-27T10:41:48.162Z,36.08
2022-08-27T10:44:42.551Z,34.90
2022-08-27T10:47:26.441Z,36.47
2022-08-27T10:50:20.651Z,36.94
2022-08-27T10:52:52.701Z,36.70
2022-08-27T10:55:29.442Z,36.86
2022-08-27T10:58:22.715Z,35.50
2022-08-27T11:01:09.472Z,35.47
2022-08-27T11:03:49.911Z,36.21
2022-08-27T11:06:52.356Z,36.57
2022-08-27T11:09:31.330Z,37.74
2022-08-27T11:12:17.884Z,36.63
2022-08-27T11:14:59.182Z,37.06
2022-08-27T11:17:32.356Z,37.75
2022-08-27T11:20:09.543Z,37.51
2022-08-27T11:22:47.361Z,36.96
2022-08-27T11:25:40.201Z,37.55
2022-08-27T11:28:09.273Z,36.03
2022-08-27T11:30:52.706Z,36.87
2022-08-27T11:33:23.752Z,37.55
2022-08-27T11:35:51.953Z,37.06
2022-08-27T11:38:29.381Z,37.27
2022-08-27T11:41:03.080Z,36.93
2022-08-27T11:43:34.672Z,37.27
2022-08-27T11:46:08.362Z,37.40
2022-08-27T11:48:40.605Z,37.25
2022-08-27T11:51:08.981Z,37.07
2022-08-27T11:53:52.197Z,36.99
2022-08-27T11:56:36.979Z,37.70
2022-08-27T11:59:31.346Z,36.53
2022-08-27T12:02:12.561Z,36.53
2022-08-27T12:04:42.661Z,36.14
2022-08-27T12:07:21.821Z,35.24
2022-08-27T12:10:12.941Z,35.53
2022-08-27T12:13:02.832Z,35.47
2022-08-27T12:15:43.349Z,35.35
2022-08-27T12:18:16.825Z,34.68
2022-08-27T12:21:11.751Z,35.36
2022-08-27T12:23:50.127Z,36.39
2022-08-27T12:26:37.012Z,36.41
2022-08-27T12:29:41.037Z,36.69
2022-08-27T12:32:25.123Z,35.60
2022-08-27T12:35:00.242Z,36.41
2022-08-27T12:37:32.461Z,36.50
2022-08-27T12:40:04.252Z,35.81
2022-08-27T12:42:32.452Z,36.29
2022-08-27T12:45:00.233Z,36.13
2022-08-27T12:47:28.545Z,35.74
2022-08-27T12:49:59.392Z,35.01
2022-08-27T12:52:42.206Z,35.63
2022-08-27T12:55:22.523Z,36.30
2022-08-27T12:58:31.413Z,36.77
2022-08-27T13:01:17.957Z,35.54
2022-08-27T13:03:50.431Z,35.78
2022-08-27T13:06:30.291Z,36.14
2022-08-27T13:09:01.360Z,36.57
2022-08-27T13:11:45.454Z,35.76
2022-08-27T13:14:16.645Z,35.57
2022-08-27T13:16:51.892Z,35.59
2022-08-27T13:19:50.802Z,35.34
2022-08-27T13:22:40.370Z,34.87
2022-08-27T13:25:30.075Z,35.52
2022-08-27T13:28:08.223Z,35.50
2022-08-27T13:30:38.281Z,35.12
2022-08-27T13:33:08.803Z,34.43
2022-08-27T13:35:37.773Z,35.09
2022-08-27T13:38:05.753Z,34.43
2022-08-27T13:40:37.257Z,34.74
2022-08-27T13:43:11.819Z,35.52
2022-08-27T13:45:41.974Z,35.38
2022-08-27T13:48:11.789Z,34.75
2022-08-27T13:50:48.721Z,34.45
2022-08-27T13:53:40.364Z,35.13
2022-08-27T13:56:09.393Z,34.88
2022-08-27T13:58:37.502Z,35.00
2022-08-27T14:01:32.919Z,33.98
2022-08-27T14:04:06.602Z,34.91
2022-08-27T14:06:41.423Z,35.04
2022-08-27T14:09:29.590Z,35.12
2022-08-27T14:12:06.773Z,35.07
2022-08-27T14:14:40.230Z,34.49
2022-08-27T14:17:24.152Z,34.88
2022-08-27T14:20:00.361Z,35.06
2022-08-27T14:22:28.901Z,35.16
2022-08-27T14:24:57.057Z,34.90
2022-08-27T14:27:25.141Z,35.32
2022-08-27T14:29:52.961Z,35.35
2022-08-27T14:32:21.602Z,35.18
2022-08-27T14:34:50.343Z,34.51
2022-08-27T14:37:18.162Z,34.34
2022-08-27T14:39:46.460Z,33.99
2022-08-27T14:42:14.832Z,34.18
2022-08-27T14:44:42.904Z,34.46
2022-08-27T14:47:11.953Z,34.51
2022-08-27T14:49:41.563Z,34.91
2022-08-27T14:52:09.993Z,35.12
2022-08-27T14:54:39.051Z,35.22
2022-08-27T14:57:08.122Z,34.59
2022-08-27T14:59:37.152Z,34.71
2022-08-27T15:02:09.289Z,33.77
2022-08-27T15:04:37.456Z,33.55
2022-08-27T15:07:06.562Z,33.41
2022-08-27T15:09:34.426Z,33.74
2022-08-27T15:12:02.353Z,33.38
2022-08-27T15:14:33.086Z,33.74
2022-08-27T15:17:01.001Z,34.04
2022-08-27T15:19:29.755Z,33.79
2022-08-27T15:22:04.472Z,34.41
2022-08-27T15:24:40.671Z,33.75
2022-08-27T15:27:08.814Z,33.64
2022-08-27T15:29:36.901Z,34.00
2022-08-27T15:32:05.928Z,34.40
2022-08-27T15:34:34.087Z,34.72
2022-08-27T15:37:03.111Z,34.64
2022-08-27T15:39:30.852Z,34.30
2022-08-27T15:42:06.824Z,33.78
2022-08-27T15:44:36.141Z,33.06
2022-08-27T15:47:04.442Z,33.51
2022-08-27T15:49:32.331Z,33.01
2022-08-27T15:52:00.978Z,33.21
2022-08-27T15:54:29.202Z,32.89
2022-08-27T15:56:57.232Z,33.14
2022-08-27T15:59:25.148Z,32.74
2022-08-27T16:01:54.880Z,32.80
2022-08-27T16:04:23.662Z,32.57
2022-08-27T16:06:51.624Z,33.09
2022-08-27T16:09:19.476Z,32.33
2022-08-27T16:11:47.762Z,31.41
2022-08-27T16:14:16.062Z,31.98
2022-08-27T16:16:46.052Z,31.85
2022-08-27T16:19:16.612Z,31.75
2022-08-27T16:21:44.942Z,31.29
2022-08-27T16:24:12.922Z,30.58
2022-08-27T16:26:41.263Z,30.90
2022-08-27T16:29:09.762Z,31.33
2022-08-27T16:31:38.236Z,31.17
2022-08-27T16:34:16.523Z,30.60
2022-08-27T16:36:44.575Z,30.56
2022-08-27T16:39:12.768Z,30.03
2022-08-27T16:41:41.572Z,29.95
2022-08-27T16:44:09.974Z,29.80
2022-08-27T16:46:38.154Z,29.26
2022-08-27T16:49:24.516Z,28.95
2022-08-27T16:51:52.682Z,28.62
2022-08-27T16:54:21.693Z,28.44
2022-08-27T16:56:50.074Z,28.25
2022-08-27T16:59:18.212Z,28.22
2022-08-27T17:01:48.617Z,28.00
2022-08-27T17:04:27.657Z,27.56
2022-08-27T17:06:58.410Z,27.89
2022-08-27T17:09:26.913Z,26.77
2022-08-27T17:11:58.312Z,27.08
2022-08-27T17:14:27.036Z,27.92
2022-08-27T17:16:54.880Z,27.77
2022-08-27T17:19:25.863Z,27.59
2022-08-27T17:21:55.193Z,27.15
2022-08-27T17:24:22.972Z,27.02
2022-08-27T17:26:50.693Z,26.48
2022-08-27T17:29:19.974Z,26.21
2022-08-27T17:31:47.742Z,26.33
2022-08-27T17:34:17.997Z,26.36
2022-08-27T17:36:46.453Z,26.24
2022-08-27T17:39:14.780Z,26.12
2022-08-27T17:41:45.123Z,26.21
2022-08-27T17:44:24.990Z,26.12
2022-08-27T17:46:54.671Z,26.05
2022-08-27T17:49:22.962Z,25.80
2022-08-27T17:51:52.132Z,25.61
2022-08-27T17:54:42.664Z,25.38
2022-08-27T17:57:16.633Z,25.47
2022-08-27T17:59:45.414Z,25.53
2022-08-27T18:02:20.104Z,25.38
2022-08-27T18:04:48.943Z,25.47
2022-08-27T18:07:16.922Z,25.13
2022-08-27T18:09:44.911Z,25.20
2022-08-27T18:12:15.574Z,25.13
2022-08-27T18:14:44.303Z,25.30
2022-08-27T18:17:13.810Z,24.35
2022-08-27T18:19:45.538Z,24.98
2022-08-27T18:22:13.612Z,25.17
2022-08-27T18:24:41.442Z,24.89
2022-08-27T18:27:09.584Z,24.36
2022-08-27T18:29:37.354Z,24.53
2022-08-27T18:32:05.268Z,24.75
2022-08-27T18:34:33.443Z,24.65
2022-08-27T18:37:01.480Z,24.69
2022-08-27T18:39:29.854Z,24.44
2022-08-27T18:41:57.927Z,24.54
2022-08-27T18:44:25.941Z,24.70
2022-08-27T18:46:53.913Z,24.07
2022-08-27T18:49:22.484Z,24.49
2022-08-27T18:51:52.719Z,24.82
2022-08-27T18:54:21.513Z,24.50
2022-08-27T18:56:50.002Z,24.53
2022-08-27T18:59:18.328Z,24.72
2022-08-27T19:01:46.419Z,24.39
2022-08-27T19:04:16.585Z,24.39
2022-08-27T19:06:44.404Z,24.57
2022-08-27T19:09:12.954Z,24.54
2022-08-27T19:11:41.879Z,24.55
2022-08-27T19:14:09.633Z,24.58
2022-08-27T19:16:46.849Z,24.49
2022-08-27T19:19:16.382Z,24.50
2022-08-27T19:21:48.003Z,24.52
2022-08-27T19:24:20.459Z,24.35
2022-08-27T19:26:49.666Z,24.32
2022-08-27T19:29:18.443Z,24.22
2022-08-27T19:31:48.376Z,23.98
2022-08-27T19:34:16.391Z,24.04
2022-08-27T19:36:44.775Z,24.20
2022-08-27T19:39:13.920Z,24.27
2022-08-27T19:41:41.763Z,24.40
2022-08-27T19:44:09.901Z,23.84
2022-08-27T19:46:38.464Z,23.59
2022-08-27T19:49:06.262Z,23.98
2022-08-27T19:51:34.152Z,24.20
2022-08-27T19:54:02.361Z,24.73
2022-08-27T19:56:32.632Z,24.46
2022-08-27T19:59:10.876Z,24.31
2022-08-27T20:01:49.261Z,24.62
2022-08-27T20:04:17.473Z,24.39
2022-08-27T20:06:45.351Z,24.21
2022-08-27T20:09:18.064Z,24.08
2022-08-27T20:11:46.163Z,23.90
2022-08-27T20:14:13.913Z,23.73
2022-08-27T20:16:41.798Z,23.83
2022-08-27T20:19:10.533Z,23.77
2022-08-27T20:21:38.562Z,23.19
2022-08-27T20:24:06.633Z,23.76
2022-08-27T20:26:34.963Z,23.88
2022-08-27T20:29:03.273Z,23.69
2022-08-27T20:31:31.204Z,23.77
2022-08-27T20:33:59.397Z,23.49
2022-08-27T20:36:29.531Z,23.52
2022-08-27T20:38:57.972Z,23.59
2022-08-27T20:41:26.642Z,23.68
2022-08-27T20:43:54.841Z,23.09
2022-08-27T20:46:26.043Z,22.47
2022-08-27T20:48:56.651Z,22.70
2022-08-27T20:51:25.246Z,23.49
2022-08-27T20:53:53.803Z,23.44
2022-08-27T20:56:22.375Z,23.43
2022-08-27T20:59:08.863Z,23.47
2022-08-27T21:01:38.035Z,23.35
2022-08-27T21:04:05.795Z,23.20
2022-08-27T21:06:33.722Z,22.94
2022-08-27T21:09:01.892Z,23.01
2022-08-27T21:11:29.715Z,22.97
2022-08-27T21:13:57.671Z,23.00
2022-08-27T21:16:25.958Z,22.69
2022-08-27T21:18:54.204Z,22.93
2022-08-27T21:21:22.712Z,22.82
2022-08-27T21:23:50.847Z,22.96
2022-08-27T21:26:20.230Z,23.16
2022-08-27T21:28:48.060Z,23.06
2022-08-27T21:31:24.850Z,23.10
2022-08-27T21:33:52.632Z,22.80
2022-08-27T21:36:20.430Z,22.50
2022-08-27T21:38:48.633Z,23.19
2022-08-27T21:41:16.426Z,23.22
2022-08-27T21:43:44.272Z,22.77
2022-08-27T21:46:12.457Z,23.38
2022-08-27T21:48:40.273Z,23.41
2022-08-27T21:51:13.898Z,23.40
2022-08-27T21:53:42.999Z,23.51
2022-08-27T21:56:11.741Z,23.36
2022-08-27T21:58:39.640Z,23.49
2022-08-27T22:01:08.048Z,23.46
2022-08-27T22:03:36.702Z,23.60
2022-08-27T22:06:08.142Z,23.54
2022-08-27T22:08:36.714Z,22.82
2022-08-27T22:11:05.095Z,23.10
2022-08-27T22:13:33.740Z,23.44
2022-08-27T22:16:02.293Z,23.01
2022-08-27T22:18:30.552Z,23.91
2022-08-27T22:20:59.362Z,23.46
2022-08-27T22:23:27.768Z,23.91
2022-08-27T22:25:55.570Z,23.10
2022-08-27T22:28:23.451Z,23.77
2022-08-27T22:30:51.519Z,23.60
2022-08-27T22:33:19.348Z,23.42
2022-08-27T22:35:47.832Z,23.47
2022-08-27T22:38:16.111Z,23.46
2022-08-27T22:40:44.112Z,23.25
2022-08-27T22:43:12.420Z,23.31
2022-08-27T22:45:40.573Z,22.98
2022-08-27T22:48:08.443Z,23.05
2022-08-27T22:50:36.254Z,22.93
2022-08-27T22:53:04.512Z,22.59
2022-08-27T22:55:32.360Z,22.99
2022-08-27T22:58:02.212Z,23.00
2022-08-27T23:00:33.995Z,22.48
2022-08-27T23:03:05.672Z,23.08
2022-08-27T23:05:41.519Z,22.83
2022-08-27T23:08:11.507Z,23.15
2022-08-27T23:10:40.341Z,23.05
2022-08-27T23:13:09.891Z,22.64
2022-08-27T23:15:38.883Z,22.94
2022-08-27T23:18:07.281Z,23.23
2022-08-27T23:20:35.282Z,23.27
2022-08-27T23:23:03.351Z,23.12
2022-08-27T23:25:50.292Z,22.94
2022-08-27T23:28:18.079Z,22.93
2022-08-27T23:30:46.811Z,22.89
2022-08-27T23:33:15.032Z,23.26
2022-08-27T23:35:47.905Z,23.70
2022-08-27T23:38:17.940Z,23.94
2022-08-27T23:40:47.440Z,24.42
2022-08-27T23:43:15.420Z,24.76
2022-08-27T23:45:43.838Z,24.81
2022-08-27T23:48:13.182Z,25.04
2022-08-27T23:50:41.420Z,24.94
2022-08-27T23:53:10.031Z,24.91
2022-08-27T23:55:40.473Z,24.74
2022-08-27T23:58:09.053Z,24.45
